createdAt,value
2023-04-07T00:00:51.677Z,16.73
2023-04-07T00:03:40.877Z,17.82
2023-04-07T00:06:29.725Z,17.57
2023-04-07T00:09:17.107Z,17.92
2023-04-07T00:12:04.707Z,17.17
2023-04-07T00:14:52.194Z,17.77
2023-04-07T00:17:39.502Z,16.73
2023-04-07T00:20:27.117Z,17.85
2023-04-07T00:23:14.717Z,18.00
2023-04-07T00:26:02.524Z,18.23
2023-04-07T00:28:50.022Z,18.07
2023-04-07T00:31:37.649Z,18.23
2023-04-07T00:34:24.727Z,18.98
2023-04-07T00:37:11.962Z,18.95
2023-04-07T00:39:59.580Z,19.02
2023-04-07T00:42:46.834Z,19.35
2023-04-07T00:45:34.512Z,17.62
2023-04-07T00:48:22.688Z,19.52
2023-04-07T00:51:10.371Z,18.95
2023-04-07T00:53:57.683Z,19.27
2023-04-07T00:56:45.076Z,18.73
2023-04-07T00:59:32.451Z,19.45
2023-04-07T01:02:35.427Z,18.67
2023-04-07T01:05:26.244Z,17.62
2023-04-07T01:08:19.543Z,18.48
2023-04-07T01:11:09.871Z,19.17
2023-04-07T01:14:01.132Z,19.37
2023-04-07T01:16:52.475Z,18.05
2023-04-07T01:19:42.967Z,17.62
2023-04-07T01:22:36.189Z,16.73
2023-04-07T01:25:48.956Z,18.23
2023-04-07T01:28:48.592Z,17.62
2023-04-07T01:31:38.383Z,17.75
2023-04-07T01:34:28.078Z,17.67
2023-04-07T01:37:16.887Z,18.07
2023-04-07T01:40:05.493Z,17.30
2023-04-07T01:42:54.041Z,18.07
2023-04-07T01:45:43.007Z,17.02
2023-04-07T01:48:30.566Z,17.25
2023-04-07T01:51:18.940Z,17.40
2023-04-07T01:54:07.530Z,18.23
2023-04-07T01:56:56.324Z,16.97
2023-04-07T01:59:43.801Z,18.60
2023-04-07T02:02:32.310Z,18.15
2023-04-07T02:05:22.483Z,17.60
2023-04-07T02:08:11.566Z,18.15
2023-04-07T02:11:00.748Z,16.80
2023-04-07T02:13:48.944Z,16.50
2023-04-07T02:16:36.963Z,17.20
2023-04-07T02:19:24.817Z,17.60
2023-04-07T02:22:12.978Z,18.57
2023-04-07T02:25:00.324Z,17.57
2023-04-07T02:27:47.604Z,18.50
2023-04-07T02:30:36.348Z,17.73
2023-04-07T02:33:23.790Z,18.27
2023-04-07T02:36:11.361Z,19.25
2023-04-07T02:38:59.337Z,18.27
2023-04-07T02:41:46.576Z,19.50
2023-04-07T02:44:34.267Z,18.15
2023-04-07T02:47:21.802Z,18.60
2023-04-07T02:50:09.366Z,16.70
2023-04-07T02:52:56.720Z,16.82
2023-04-07T02:55:44.041Z,18.70
2023-04-07T02:58:31.479Z,16.85
2023-04-07T03:01:18.798Z,17.67
2023-04-07T03:04:06.199Z,18.32
2023-04-07T03:06:53.597Z,17.85
2023-04-07T03:09:40.742Z,16.65
2023-04-07T03:12:28.298Z,17.35
2023-04-07T03:15:17.654Z,17.57
2023-04-07T03:18:05.478Z,17.27
2023-04-07T03:20:54.748Z,17.15
2023-04-07T03:23:42.309Z,18.20
2023-04-07T03:26:30.007Z,17.77
2023-04-07T03:29:17.480Z,18.23
2023-04-07T03:32:04.762Z,19.95
2023-04-07T03:34:52.169Z,17.92
2023-04-07T03:37:39.436Z,18.45
2023-04-07T03:40:26.685Z,19.17
2023-04-07T03:43:16.112Z,18.37
2023-04-07T03:46:03.654Z,17.73
2023-04-07T03:48:51.476Z,19.02
2023-04-07T03:51:38.761Z,18.37
2023-04-07T03:54:26.725Z,18.10
2023-04-07T03:57:14.594Z,16.90
2023-04-07T04:00:01.823Z,17.65
2023-04-07T04:02:49.194Z,17.50
2023-04-07T04:05:36.687Z,17.15
2023-04-07T04:08:24.677Z,17.17
2023-04-07T04:11:12.006Z,17.10
2023-04-07T04:13:59.537Z,16.65
2023-04-07T04:16:47.314Z,17.05
2023-04-07T04:19:34.584Z,18.30
2023-04-07T04:22:21.964Z,17.40
2023-04-07T04:25:09.940Z,16.65
2023-04-07T04:27:57.498Z,16.02
2023-04-07T04:30:44.765Z,18.32
2023-04-07T04:33:32.033Z,16.95
2023-04-07T04:36:19.723Z,17.73
2023-04-07T04:39:07.155Z,16.85
2023-04-07T04:41:54.353Z,15.85
2023-04-07T04:44:41.541Z,17.45
2023-04-07T04:47:28.972Z,17.23
2023-04-07T04:50:16.275Z,17.42
2023-04-07T04:53:03.691Z,17.05
2023-04-07T04:55:53.113Z,16.67
2023-04-07T04:58:43.001Z,16.20
2023-04-07T05:01:32.817Z,16.80
2023-04-07T05:04:18.878Z,17.70
2023-04-07T05:07:06.513Z,16.97
2023-04-07T05:09:54.267Z,16.32
2023-04-07T05:12:41.824Z,16.80
2023-04-07T05:15:29.176Z,16.73
2023-04-07T05:18:16.412Z,16.15
2023-04-07T05:21:03.917Z,16.25
2023-04-07T05:23:51.655Z,16.32
2023-04-07T05:26:39.075Z,16.97
2023-04-07T05:29:26.538Z,15.68
2023-04-07T05:32:13.727Z,16.30
2023-04-07T05:35:01.446Z,16.87
2023-04-07T05:37:48.682Z,18.30
2023-04-07T05:40:37.534Z,16.75
2023-04-07T05:43:25.419Z,15.95
2023-04-07T05:46:12.930Z,16.17
2023-04-07T05:49:07.156Z,16.32
2023-04-07T05:51:49.473Z,15.40
2023-04-07T05:54:37.131Z,16.30
2023-04-07T05:57:24.332Z,15.70
2023-04-07T06:00:12.720Z,15.23
2023-04-07T06:03:01.952Z,16.77
2023-04-07T06:05:49.477Z,14.95
2023-04-07T06:08:37.134Z,15.48
2023-04-07T06:11:24.836Z,15.55
2023-04-07T06:14:12.500Z,16.32
2023-04-07T06:16:59.769Z,15.58
2023-04-07T06:19:47.789Z,15.95
2023-04-07T06:22:35.833Z,15.65
2023-04-07T06:25:23.392Z,15.58
2023-04-07T06:28:11.299Z,15.95
2023-04-07T06:30:59.528Z,14.65
2023-04-07T06:33:48.124Z,16.25
2023-04-07T06:36:35.947Z,15.48
2023-04-07T06:39:23.253Z,14.75
2023-04-07T06:42:10.572Z,15.25
2023-04-07T06:44:58.151Z,16.25
2023-04-07T06:47:45.842Z,15.78
2023-04-07T06:50:33.118Z,15.88
2023-04-07T06:53:20.581Z,16.00
2023-04-07T06:56:09.746Z,16.17
2023-04-07T06:58:57.276Z,15.32
2023-04-07T07:01:45.285Z,14.45
2023-04-07T07:04:32.666Z,15.80
2023-04-07T07:07:20.635Z,14.78
2023-04-07T07:10:11.836Z,14.50
2023-04-07T07:13:00.862Z,14.93
2023-04-07T07:15:48.466Z,15.93
2023-04-07T07:18:39.133Z,14.98
2023-04-07T07:21:26.597Z,15.55
2023-04-07T07:24:13.837Z,15.60
2023-04-07T07:27:02.718Z,15.55
2023-04-07T07:29:51.547Z,14.83
2023-04-07T07:32:38.960Z,15.35
2023-04-07T07:35:26.490Z,16.10
2023-04-07T07:38:13.909Z,15.70
2023-04-07T07:41:01.019Z,15.70
2023-04-07T07:43:50.538Z,15.45
2023-04-07T07:46:39.009Z,14.75
2023-04-07T07:49:26.114Z,15.85
2023-04-07T07:52:13.525Z,17.23
2023-04-07T07:55:00.990Z,17.07
2023-04-07T07:57:48.503Z,16.82
2023-04-07T08:00:36.213Z,16.77
2023-04-07T08:03:24.478Z,17.40
2023-04-07T08:06:11.851Z,17.20
2023-04-07T08:08:59.074Z,17.75
2023-04-07T08:11:48.403Z,17.07
2023-04-07T08:14:35.722Z,16.62
2023-04-07T08:17:23.166Z,17.12
2023-04-07T08:20:11.799Z,16.67
2023-04-07T08:22:59.513Z,16.62
2023-04-07T08:25:47.094Z,16.35
2023-04-07T08:28:34.727Z,17.82
2023-04-07T08:31:22.396Z,17.92
2023-04-07T08:34:09.891Z,17.65
2023-04-07T08:36:57.366Z,18.80
2023-04-07T08:39:44.846Z,18.32
2023-04-07T08:42:34.583Z,17.90
2023-04-07T08:45:23.257Z,16.97
2023-04-07T08:48:13.532Z,17.75
2023-04-07T08:51:06.277Z,16.80
2023-04-07T08:53:55.673Z,17.32
2023-04-07T08:56:44.018Z,18.37
2023-04-07T08:59:33.949Z,17.23
2023-04-07T09:02:21.705Z,17.00
2023-04-07T09:05:10.284Z,17.32
2023-04-07T09:07:59.614Z,17.40
2023-04-07T09:10:47.127Z,18.20
2023-04-07T09:13:34.535Z,16.77
2023-04-07T09:16:22.171Z,17.32
2023-04-07T09:19:11.404Z,17.17
2023-04-07T09:21:59.104Z,16.90
2023-04-07T09:24:46.656Z,17.85
2023-04-07T09:27:34.329Z,17.87
2023-04-07T09:30:21.894Z,18.17
2023-04-07T09:33:12.083Z,18.15
2023-04-07T09:35:59.454Z,18.27
2023-04-07T09:38:46.978Z,18.25
2023-04-07T09:41:34.677Z,17.50
2023-04-07T09:44:23.138Z,17.67
2023-04-07T09:47:12.651Z,16.93
2023-04-07T09:50:01.909Z,16.10
2023-04-07T09:52:55.563Z,16.85
2023-04-07T09:55:44.396Z,16.17
2023-04-07T09:58:31.790Z,15.50
2023-04-07T10:01:20.535Z,15.10
2023-04-07T10:04:09.299Z,15.35
2023-04-07T10:06:58.201Z,13.98
2023-04-07T10:09:46.136Z,14.13
2023-04-07T10:12:41.699Z,13.58
2023-04-07T10:15:30.510Z,13.10
2023-04-07T10:18:20.376Z,12.85
2023-04-07T10:21:10.456Z,12.53
2023-04-07T10:24:19.610Z,13.00
2023-04-07T10:27:11.584Z,14.40
2023-04-07T10:30:00.431Z,13.48
2023-04-07T10:32:52.620Z,13.70
2023-04-07T10:36:06.441Z,13.90
2023-04-07T10:39:12.059Z,14.83
2023-04-07T10:41:59.385Z,12.70
2023-04-07T10:44:48.728Z,14.85
2023-04-07T10:47:39.125Z,16.02
2023-04-07T10:50:26.656Z,15.00
2023-04-07T10:53:16.271Z,14.43
2023-04-07T10:56:04.480Z,15.00
2023-04-07T10:58:54.757Z,15.50
2023-04-07T11:01:42.544Z,15.23
2023-04-07T11:04:40.967Z,14.90
2023-04-07T11:07:46.042Z,15.08
2023-04-07T11:10:35.628Z,13.98
2023-04-07T11:13:23.193Z,13.72
2023-04-07T11:16:10.761Z,12.68
2023-04-07T11:18:58.848Z,12.30
2023-04-07T11:21:46.692Z,12.28
2023-04-07T11:24:40.240Z,12.37
2023-04-07T11:27:28.474Z,12.58
2023-04-07T11:30:18.097Z,12.13
2023-04-07T11:33:06.594Z,10.72
2023-04-07T11:35:58.786Z,11.00
2023-04-07T11:38:47.194Z,11.33
2023-04-07T11:41:36.507Z,10.55
2023-04-07T11:44:25.768Z,11.00
2023-04-07T11:47:13.043Z,9.85
2023-04-07T11:50:00.708Z,9.58
2023-04-07T11:52:49.764Z,9.75
2023-04-07T11:55:37.393Z,10.08
2023-04-07T11:58:24.896Z,9.00
2023-04-07T12:01:13.824Z,8.60
2023-04-07T12:04:05.790Z,9.28
2023-04-07T12:06:53.355Z,8.73
2023-04-07T12:09:41.744Z,8.98
2023-04-07T12:12:33.185Z,8.55
2023-04-07T12:15:21.051Z,7.15
2023-04-07T12:18:08.187Z,6.90
2023-04-07T12:20:56.000Z,6.97
2023-04-07T12:23:43.570Z,7.30
2023-04-07T12:26:31.120Z,7.42
2023-04-07T12:29:20.329Z,6.33
2023-04-07T12:32:08.074Z,5.53
2023-04-07T12:34:55.727Z,6.30
2023-04-07T12:37:43.087Z,6.37
2023-04-07T12:40:31.661Z,6.62
2023-04-07T12:43:18.999Z,5.47
2023-04-07T12:46:06.309Z,5.87
2023-04-07T12:48:53.575Z,5.50
2023-04-07T12:51:41.360Z,5.47
2023-04-07T12:54:30.238Z,5.05
2023-04-07T12:57:17.710Z,5.00
2023-04-07T13:00:06.213Z,5.45
2023-04-07T13:02:53.511Z,4.47
2023-04-07T13:05:40.886Z,4.70
2023-04-07T13:08:29.209Z,3.40
2023-04-07T13:11:16.465Z,4.25
2023-04-07T13:14:04.265Z,2.75
2023-04-07T13:16:51.667Z,3.50
2023-04-07T13:19:40.168Z,3.58
2023-04-07T13:22:27.705Z,3.47
2023-04-07T13:25:15.329Z,3.20
2023-04-07T13:28:02.776Z,2.30
2023-04-07T13:30:50.002Z,2.50
2023-04-07T13:33:38.836Z,2.62
2023-04-07T13:36:28.324Z,2.65
2023-04-07T13:39:16.058Z,2.10
2023-04-07T13:42:03.285Z,2.87
2023-04-07T13:44:51.063Z,2.40
2023-04-07T13:47:38.519Z,1.70
2023-04-07T13:50:25.832Z,1.98
2023-04-07T13:53:13.336Z,2.10
2023-04-07T13:56:03.529Z,2.40
2023-04-07T13:58:51.508Z,2.77
2023-04-07T14:01:39.401Z,2.70
2023-04-07T14:04:27.302Z,2.50
2023-04-07T14:07:14.691Z,2.45
2023-04-07T14:10:02.052Z,2.60
2023-04-07T14:12:49.618Z,2.37
2023-04-07T14:15:36.971Z,2.40
2023-04-07T14:18:24.710Z,2.35
2023-04-07T14:21:12.241Z,2.27
2023-04-07T14:23:59.844Z,2.50
2023-04-07T14:26:47.480Z,2.52
2023-04-07T14:29:34.821Z,2.70
2023-04-07T14:32:22.613Z,2.60
2023-04-07T14:35:10.502Z,2.40
2023-04-07T14:37:57.932Z,2.55
2023-04-07T14:40:45.884Z,2.58
2023-04-07T14:43:33.450Z,2.27
2023-04-07T14:46:20.981Z,2.42
2023-04-07T14:49:08.466Z,2.10
2023-04-07T14:51:56.272Z,2.00
2023-04-07T14:54:43.983Z,2.10
2023-04-07T14:57:31.317Z,2.00
2023-04-07T15:00:18.797Z,1.80
2023-04-07T15:03:06.389Z,1.50
2023-04-07T15:05:54.188Z,1.52
2023-04-07T15:08:42.037Z,1.75
2023-04-07T15:11:29.553Z,1.30
2023-04-07T15:14:17.096Z,1.60
2023-04-07T15:17:04.565Z,1.62
2023-04-07T15:19:51.894Z,1.65
2023-04-07T15:22:39.387Z,1.62
2023-04-07T15:25:26.686Z,1.17
2023-04-07T15:28:14.249Z,1.40
2023-04-07T15:31:02.147Z,1.27
2023-04-07T15:33:50.127Z,1.12
2023-04-07T15:36:37.968Z,1.20
2023-04-07T15:39:25.552Z,1.98
2023-04-07T15:42:12.964Z,1.02
2023-04-07T15:45:00.362Z,1.10
2023-04-07T15:47:47.750Z,1.02
2023-04-07T15:50:36.533Z,1.70
2023-04-07T15:53:24.258Z,1.52
2023-04-07T15:56:13.598Z,1.20
2023-04-07T15:59:00.612Z,1.80
2023-04-07T16:01:48.249Z,1.30
2023-04-07T16:04:35.420Z,2.00
2023-04-07T16:07:22.793Z,1.50
2023-04-07T16:10:12.396Z,1.57
2023-04-07T16:12:59.948Z,2.05
2023-04-07T16:15:47.326Z,1.10
2023-04-07T16:18:34.559Z,0.75
2023-04-07T16:21:22.198Z,1.00
2023-04-07T16:24:09.222Z,0.85
2023-04-07T16:26:57.196Z,0.60
2023-04-07T16:29:44.902Z,0.70
2023-04-07T16:32:32.895Z,0.50
2023-04-07T16:35:21.217Z,0.60
2023-04-07T16:38:08.950Z,0.70
2023-04-07T16:41:03.997Z,0.60
2023-04-07T16:43:45.540Z,0.88
2023-04-07T16:46:33.133Z,0.75
2023-04-07T16:49:20.415Z,0.85
2023-04-07T16:52:08.132Z,0.70
2023-04-07T16:54:55.626Z,6.95
2023-04-07T16:57:43.260Z,11.03
2023-04-07T17:00:30.910Z,1.00
2023-04-07T17:03:18.576Z,0.80
2023-04-07T17:06:06.205Z,0.90
2023-04-07T17:08:53.869Z,1.30
2023-04-07T17:11:42.541Z,1.32
2023-04-07T17:14:30.662Z,1.02
2023-04-07T17:17:17.996Z,0.70
2023-04-07T17:20:05.826Z,0.90
2023-04-07T17:22:53.094Z,0.82
2023-04-07T17:25:40.549Z,1.40
2023-04-07T17:28:29.715Z,0.95
2023-04-07T17:31:17.216Z,6.53
2023-04-07T17:34:04.614Z,11.88
2023-04-07T17:36:52.399Z,6.80
2023-04-07T17:39:40.465Z,4.62
2023-04-07T17:42:29.483Z,2.22
2023-04-07T17:45:18.730Z,2.55
2023-04-07T17:48:08.174Z,1.95
2023-04-07T17:50:56.317Z,1.87
2023-04-07T17:53:43.956Z,3.90
2023-04-07T17:56:33.926Z,2.10
2023-04-07T17:59:21.133Z,2.20
2023-04-07T18:02:10.091Z,1.90
2023-04-07T18:04:59.264Z,1.80
2023-04-07T18:07:46.493Z,1.98
2023-04-07T18:10:33.833Z,1.90
2023-04-07T18:13:21.267Z,2.27
2023-04-07T18:16:11.989Z,1.77
2023-04-07T18:19:00.524Z,1.90
2023-04-07T18:21:49.202Z,1.80
2023-04-07T18:24:38.156Z,2.30
2023-04-07T18:27:27.263Z,2.85
2023-04-07T18:30:14.832Z,3.83
2023-04-07T18:33:02.478Z,4.00
2023-04-07T18:35:52.772Z,2.40
2023-04-07T18:38:40.438Z,1.85
2023-04-07T18:41:27.760Z,1.40
2023-04-07T18:44:15.548Z,1.37
2023-04-07T18:47:03.141Z,1.35
2023-04-07T18:49:50.303Z,1.30
2023-04-07T18:52:37.658Z,1.30
2023-04-07T18:55:25.287Z,1.40
2023-04-07T18:58:12.535Z,1.00
2023-04-07T19:01:00.120Z,1.50
2023-04-07T19:03:48.016Z,1.70
2023-04-07T19:06:36.049Z,1.45
2023-04-07T19:09:23.634Z,1.37
2023-04-07T19:12:11.685Z,1.90
2023-04-07T19:14:59.013Z,1.80
2023-04-07T19:17:46.640Z,2.10
2023-04-07T19:20:33.993Z,1.70
2023-04-07T19:23:21.394Z,1.87
2023-04-07T19:26:13.740Z,1.62
2023-04-07T19:29:03.473Z,2.10
2023-04-07T19:31:52.849Z,1.90
2023-04-07T19:34:40.668Z,2.12
2023-04-07T19:37:27.883Z,1.87
2023-04-07T19:40:15.293Z,1.80
2023-04-07T19:43:02.680Z,1.92
2023-04-07T19:45:49.934Z,2.20
2023-04-07T19:48:37.732Z,2.10
2023-04-07T19:51:25.806Z,2.20
2023-04-07T19:54:13.373Z,2.27
2023-04-07T19:57:01.715Z,2.80
2023-04-07T19:59:49.041Z,2.67
2023-04-07T20:02:37.479Z,2.08
2023-04-07T20:05:24.924Z,2.30
2023-04-07T20:08:12.270Z,3.40
2023-04-07T20:10:59.502Z,3.62
2023-04-07T20:13:49.478Z,3.22
2023-04-07T20:16:37.209Z,2.37
2023-04-07T20:19:24.642Z,3.35
2023-04-07T20:22:12.117Z,3.33
2023-04-07T20:24:59.829Z,2.83
2023-04-07T20:27:48.705Z,2.72
2023-04-07T20:30:36.572Z,2.62
2023-04-07T20:33:24.131Z,2.52
2023-04-07T20:36:12.013Z,2.58
2023-04-07T20:38:59.460Z,2.92
2023-04-07T20:41:46.991Z,2.92
2023-04-07T20:44:34.473Z,3.20
2023-04-07T20:47:24.958Z,2.67
2023-04-07T20:50:11.981Z,2.45
2023-04-07T20:53:01.596Z,3.47
2023-04-07T20:55:49.102Z,4.90
2023-04-07T20:58:37.142Z,4.37
2023-04-07T21:01:24.643Z,4.28
2023-04-07T21:04:12.342Z,5.17
2023-04-07T21:07:00.052Z,4.60
2023-04-07T21:09:48.166Z,3.67
2023-04-07T21:12:35.714Z,3.70
2023-04-07T21:15:23.277Z,3.85
2023-04-07T21:18:10.755Z,4.50
2023-04-07T21:20:59.894Z,3.95
2023-04-07T21:23:47.028Z,6.22
2023-04-07T21:26:34.113Z,5.33
2023-04-07T21:29:22.566Z,4.70
2023-04-07T21:32:13.942Z,3.70
2023-04-07T21:35:01.850Z,4.12
2023-04-07T21:37:49.358Z,4.00
2023-04-07T21:40:36.628Z,4.17
2023-04-07T21:43:24.837Z,4.17
2023-04-07T21:46:14.054Z,3.87
2023-04-07T21:49:02.332Z,4.00
2023-04-07T21:51:50.207Z,3.72
2023-04-07T21:54:37.828Z,5.22
2023-04-07T21:57:25.483Z,5.28
2023-04-07T22:00:14.077Z,3.77
2023-04-07T22:03:01.772Z,5.15
2023-04-07T22:05:49.284Z,4.42
2023-04-07T22:08:36.867Z,4.12
2023-04-07T22:11:24.164Z,4.50
2023-04-07T22:14:11.639Z,5.83
2023-04-07T22:16:59.423Z,5.97
2023-04-07T22:19:46.661Z,5.15
2023-04-07T22:22:34.094Z,6.75
2023-04-07T22:25:21.322Z,5.75
2023-04-07T22:28:09.162Z,5.00
2023-04-07T22:30:58.056Z,4.95
2023-04-07T22:33:45.738Z,4.78
2023-04-07T22:36:48.300Z,4.47
2023-04-07T22:39:35.976Z,3.67
2023-04-07T22:42:23.074Z,3.90
2023-04-07T22:45:10.914Z,3.65
2023-04-07T22:47:58.685Z,3.42
2023-04-07T22:50:46.318Z,3.60
2023-04-07T22:53:33.859Z,3.55
2023-04-07T22:56:21.228Z,3.12
2023-04-07T22:59:09.097Z,3.25
2023-04-07T23:01:57.820Z,3.33
2023-04-07T23:04:47.073Z,3.37
2023-04-07T23:07:34.643Z,3.50
2023-04-07T23:10:22.238Z,3.60
2023-04-07T23:13:09.652Z,3.65
2023-04-07T23:15:57.987Z,3.98
2023-04-07T23:18:45.643Z,4.10
2023-04-07T23:21:33.333Z,3.40
2023-04-07T23:24:20.783Z,3.50
2023-04-07T23:27:08.235Z,3.58
2023-04-07T23:29:55.550Z,3.80
2023-04-07T23:32:42.851Z,3.62
2023-04-07T23:35:31.061Z,3.65
2023-04-07T23:38:18.190Z,3.83
2023-04-07T23:41:05.521Z,3.60
2023-04-07T23:43:53.021Z,3.35
2023-04-07T23:46:41.826Z,3.62
2023-04-07T23:49:29.153Z,3.50
2023-04-07T23:52:16.870Z,3.45
2023-04-07T23:55:04.524Z,3.37
2023-04-07T23:57:52.167Z,3.80
